ADDS METAR Data INFO
IDs: Format: Raw Decoded Include TAF

Data at: 0026 UTC 23 Oct 2017

KTWF 222353Z 30005KT 10SM BKN070 15/07 A3031 RMK AO2 SLP238 T01500067 10183 20128 53008
KTWF 222253Z 27014KT 10SM CLR 17/06 A3030 RMK AO2 SLP231 T01720056
KTWF 222153Z 27011KT 10SM CLR 17/06 A3029 RMK AO2 SLP228 T01720056
KTWF 222053Z 26013KT 10SM BKN070 17/05 A3028 RMK AO2 SLP229 T01670050 58006
KTWF 221953Z 26012KT 10SM BKN070 16/05 A3029 RMK AO2 SLP233 T01610050
KTWF 221853Z 28004KT 10SM OVC075 13/06 A3031 RMK AO2 SLP240 T01330061
KTWF 221753Z 25008KT 10SM FEW080 14/04 A3031 RMK AO2 SLP238 T01390039 10139 20078 51009
KTWF 221653Z 21010KT 10SM FEW075 BKN110 13/04 A3030 RMK AO2 SLP238 T01280044
KTWF 221553Z 20008KT 10SM BKN080 BKN120 11/05 A3029 RMK AO2 SLP239 T01060050
KTWF 221453Z 20009KT 10SM FEW110 09/04 A3027 RMK AO2 SLP237 T00890039 51015
KTWF 221353Z 20008KT 10SM BKN120 08/03 A3027 RMK AO2 PRESRR SLP236 T00830033
KTWF 221253Z 17012G18KT 10SM CLR 08/03 A3024 RMK AO2 SLP226 T00830033
KTWF 221153Z 18015KT 10SM CLR 08/03 A3022 RMK AO2 SLP219 70005 T00780033 10078 20050 58006
KTWF 221053Z AUTO 18014KT 10SM CLR 07/04 A3023 RMK AO2 SLP217 T00720039
KTWF 220953Z AUTO 21009KT 10SM CLR 07/04 A3025 RMK AO2 SLP223 T00670039
KTWF 220853Z AUTO 20010KT 10SM CLR 06/04 A3025 RMK AO2 SLP225 T00610039 51006
KTWF 220753Z AUTO 20009KT 10SM FEW110 06/04 A3024 RMK AO2 SLP223 T00610044
KTWF 220653Z AUTO VRB04KT 10SM FEW060 07/05 A3024 RMK AO2 SLP222 T00720050 401111022
KTWF 220553Z AUTO 17011KT 10SM SCT050 SCT060 BKN080 08/06 A3023 RMK AO2 RAE18 SLP220 P0000 60005 T00780056 10078 20056 58006
KTWF 220453Z AUTO 17007KT 10SM -RA BKN041 OVC050 07/06 A3026 RMK AO2 SLP233 P0002 T00670061
KTWF 220353Z AUTO 35003KT 9SM -RA OVC032 06/06 A3026 RMK AO2 SLP237 P0002 T00610056
KTWF 220253Z AUTO 00000KT 10SM -RA OVC035 06/06 A3025 RMK AO2 SLP238 P0001 60001 T00610056 51012
KTWF 220153Z 00000KT 10SM -RA OVC033 06/06 A3024 RMK AO2 SLP241 P0000 T00560056
KTWF 220053Z 24006KT 10SM -RA OVC032 06/04 A3023 RMK AO2 SLP237 P0000 T00610044
KTWF 212353Z 25011KT 10SM -RA BKN041 OVC050 08/03 A3021 RMK AO2 RAB33 SLP225 P0000 60000 T00780033 10111 20072 53015
KTWF 212253Z 27011G18KT 10SM OVC060 10/M01 A3018 RMK AO2 SLP210 T01001011
KTWF 212153Z 26013G18KT 10SM OVC065 11/M03 A3016 RMK AO2 SLP202 T01111033
KTWF 212053Z 22007KT 10SM OVC070 11/M04 A3016 RMK AO2 SLP201 T01061044 56008
KTWF 211953Z 26007KT 220V290 10SM CLR 11/M05 A3016 RMK AO2 SLP200 T01061050
KTWF 211853Z 23012KT 10SM CLR 09/M04 A3017 RMK AO2 SLP205 T00941039
KTWF 211753Z 19007KT 10SM CLR 08/M04 A3019 RMK AO2 SLP212 T00781039 10078 21022 51008
KTWF 211653Z 19010KT 10SM CLR 07/M02 A3019 RMK AO2 SLP214 T00671022
KTWF 211553Z 18006KT 10SM CLR 04/M02 A3018 RMK AO2 SLP212 T00441022
KTWF 211453Z 18008KT 10SM CLR 01/M03 A3016 RMK AO2 SLP212 T00111028 51014
KTWF 211353Z 19009KT 10SM CLR M02/M04 A3015 RMK AO2 SLP213 T10221039
KTWF 211253Z 18010KT 10SM CLR M02/M03 A3014 RMK AO2 SLP211 T10171033